Time;durP1;ratioP1;P1;durP2;ratioP2;P2;SDS_P1;SDS_P2;PMS_P1;PMS_P2;Temp;Humidity;BMP_temperature;BMP_pressure;BME280_temperature;BME280_humidity;BME280_pressure;Samples;Min_cycle;Max_cycle;Signal;HPM_P1;HPM_P2
2022/09/17 00:00:09;;;;;;;3.47;1.63;;;10.70;99.90;;;11.35;100.00;97826.53;4963395;28;20486;-84
2022/09/17 00:02:37;;;;;;;3.30;1.50;;;10.70;99.90;;;11.36;100.00;97816.88;4963544;28;20525;-83
2022/09/17 00:05:11;;;;;;;9.37;1.50;;;10.60;99.90;;;11.40;100.00;97829.38;4964566;28;20540;-83
2022/09/17 00:07:40;;;;;;;2.67;1.33;;;10.60;99.90;;;11.38;100.00;97814.88;4954109;28;20503;-84
2022/09/17 00:10:09;;;;;;;7.93;1.43;;;10.60;99.90;;;11.42;100.00;97822.13;4967645;28;20909;-83
2022/09/17 00:12:38;;;;;;;5.67;1.27;;;10.70;99.90;;;11.44;100.00;97822.75;4962400;28;20489;-83
2022/09/17 00:15:08;;;;;;;4.07;1.70;;;10.70;99.90;;;11.40;100.00;97831.19;4962530;28;20873;-83
2022/09/17 00:17:37;;;;;;;7.30;1.47;;;10.70;99.90;;;11.36;100.00;97822.91;4961054;28;20591;-83
2022/09/17 00:20:09;;;;;;;5.50;1.50;;;10.70;99.90;;;11.34;100.00;97819.69;4968954;28;20467;-84
2022/09/17 00:22:40;;;;;;;4.00;1.63;;;10.70;99.90;;;11.38;100.00;97826.16;4968390;28;20456;-84
2022/09/17 00:25:09;;;;;;;1.90;1.20;;;10.70;99.90;;;11.39;100.00;97825.13;4967235;28;21007;-83
2022/09/17 00:27:37;;;;;;;3.47;1.40;;;10.70;99.90;;;11.38;100.00;97827.97;4967777;28;20459;-84
2022/09/17 00:30:08;;;;;;;6.17;1.40;;;10.70;99.90;;;11.37;100.00;97839.44;4969022;28;20481;-84
2022/09/17 00:32:36;;;;;;;6.93;1.70;;;10.70;99.90;;;11.35;100.00;97836.22;4968392;28;20522;-82
2022/09/17 00:35:08;;;;;;;3.17;1.17;;;10.70;99.90;;;11.37;100.00;97836.81;4968315;28;20459;-83
2022/09/17 00:37:36;;;;;;;3.60;1.40;;;10.60;99.90;;;11.27;100.00;97834.56;4965679;28;20492;-83
2022/09/17 00:40:06;;;;;;;4.60;1.70;;;10.60;99.90;;;11.26;100.00;97835.56;4969140;28;21453;-83
2022/09/17 00:42:34;;;;;;;4.10;1.50;;;10.60;99.90;;;11.24;100.00;97837.59;4964543;28;20468;-82
2022/09/17 00:45:04;;;;;;;3.50;1.80;;;10.50;99.90;;;11.26;100.00;97827.72;4969285;28;20563;-83
2022/09/17 00:47:40;;;;;;;11.47;2.10;;;10.50;99.90;;;11.23;100.00;97832.53;4962897;28;20490;-83
2022/09/17 00:50:15;;;;;;;3.73;1.60;;;10.60;99.90;;;11.21;100.00;97837.97;4959931;28;20476;-83
2022/09/17 00:52:49;;;;;;;1.57;1.10;;;10.60;99.90;;;11.24;100.00;97840.22;4963573;28;20457;-83
2022/09/17 00:55:28;;;;;;;3.93;1.20;;;10.50;99.90;;;11.28;100.00;97841.41;4961486;28;20472;-82
2022/09/17 00:58:01;;;;;;;5.33;1.77;;;10.50;99.90;;;11.32;100.00;97841.81;4964519;28;20544;-83
2022/09/17 01:00:34;;;;;;;5.20;1.23;;;10.60;99.90;;;11.32;100.00;97837.41;4959692;28;20501;-83
2022/09/17 01:03:06;;;;;;;2.53;1.30;;;10.70;99.90;;;11.35;100.00;97831.75;4962631;28;20502;-83
2022/09/17 01:05:44;;;;;;;2.60;1.20;;;10.70;99.90;;;11.39;100.00;97838.22;4962094;28;20468;-83
2022/09/17 01:08:28;;;;;;;7.80;1.27;;;10.70;99.90;;;11.43;100.00;97828.97;4963062;28;21002;-83
2022/09/17 01:11:29;;;;;;;3.63;1.40;;;10.70;99.90;;;11.44;100.00;97841.06;4974244;28;20557;-83
2022/09/17 01:14:17;;;;;;;4.33;1.50;;;10.70;99.90;;;11.41;100.00;97836.22;4961814;28;20465;-83
2022/09/17 01:17:00;;;;;;;8.23;1.40;;;10.80;99.90;;;11.41;100.00;97831.00;4963850;28;20515;-83
2022/09/17 01:20:19;;;;;;;4.77;1.83;;;10.70;99.90;;;11.36;100.00;97838.63;4962300;28;20455;-84
2022/09/17 01:23:13;;;;;;;9.93;1.33;;;10.80;99.90;;;11.41;100.00;97830.19;4961868;28;20544;-83
2022/09/17 01:26:02;;;;;;;3.43;1.47;;;10.70;99.90;;;11.45;100.00;97837.44;4964955;28;20455;-83
2022/09/17 01:28:44;;;;;;;3.37;1.20;;;10.70;99.90;;;11.50;100.00;97840.28;4966092;28;20495;-83
2022/09/17 01:31:36;;;;;;;5.37;1.63;;;10.70;99.90;;;11.41;100.00;97841.47;4967467;28;20450;-83
2022/09/17 01:34:18;;;;;;;4.90;1.60;;;10.80;99.90;;;11.36;100.00;97856.94;4965756;28;20493;-83
2022/09/17 01:37:03;;;;;;;7.10;1.93;;;10.70;99.90;;;11.35;100.00;97855.31;4965715;28;20587;-83
2022/09/17 01:39:50;;;;;;;1.67;1.20;;;10.70;99.90;;;11.31;100.00;97855.94;4966427;28;20452;-84
2022/09/17 01:42:27;;;;;;;4.30;1.70;;;10.70;99.90;;;11.39;100.00;97858.34;4964576;28;20463;-84
2022/09/17 01:45:10;;;;;;;4.27;1.50;;;10.70;99.90;;;11.38;100.00;97852.34;4966360;28;20457;-83
2022/09/17 01:47:47;;;;;;;5.93;1.43;;;10.70;99.90;;;11.39;100.00;97851.31;4968998;28;20479;-83
2022/09/17 01:50:25;;;;;;;3.20;1.50;;;10.80;99.90;;;11.40;100.00;97852.94;4963125;28;20799;-83
2022/09/17 01:52:58;;;;;;;3.00;1.70;;;10.80;99.90;;;11.40;100.00;97845.09;4964806;28;20464;-83
2022/09/17 01:55:35;;;;;;;4.80;1.30;;;10.80;99.90;;;11.38;100.00;97847.09;4962633;28;20452;-84
2022/09/17 01:58:14;;;;;;;7.60;1.43;;;10.60;99.90;;;11.35;100.00;97850.09;4963016;28;20497;-83
2022/09/17 02:00:50;;;;;;;7.77;1.60;;;10.70;99.90;;;11.38;100.00;97854.97;4960807;28;20555;-83
2022/09/17 02:03:29;;;;;;;7.20;1.57;;;10.70;99.90;;;11.37;100.00;97850.72;4960880;28;20468;-84
2022/09/17 02:06:04;;;;;;;3.03;1.70;;;10.60;99.90;;;11.29;100.00;97847.44;4960573;28;20449;-83
2022/09/17 02:08:43;;;;;;;9.90;1.27;;;10.70;99.90;;;11.23;100.00;97838.59;4962172;28;20475;-83
2022/09/17 02:11:16;;;;;;;2.30;1.30;;;10.60;99.90;;;11.22;100.00;97836.97;4965890;28;20452;-84
2022/09/17 02:13:52;;;;;;;10.37;1.37;;;10.70;99.90;;;11.26;100.00;97834.75;4972116;28;21057;-83
2022/09/17 02:16:26;;;;;;;1.60;1.30;;;10.60;99.90;;;11.28;100.00;97830.94;4974184;28;20544;-83
2022/09/17 02:19:05;;;;;;;7.00;1.60;;;10.70;99.90;;;11.28;100.00;97838.00;4971911;28;20551;-83
2022/09/17 02:21:45;;;;;;;2.87;1.50;;;10.70;99.90;;;11.26;100.00;97847.84;4963103;28;20972;-83
2022/09/17 02:24:23;;;;;;;3.13;1.70;;;10.60;99.90;;;11.11;100.00;97843.56;4966114;28;20477;-83
2022/09/17 02:27:04;;;;;;;1.67;1.20;;;10.60;99.90;;;11.13;100.00;97853.03;4963536;28;20986;-83
2022/09/17 02:29:40;;;;;;;2.43;1.20;;;10.50;99.90;;;11.16;100.00;97853.47;4964362;28;20472;-83
2022/09/17 02:32:09;;;;;;;9.47;1.87;;;10.50;99.90;;;11.15;100.00;97849.22;4962880;28;20484;-83
2022/09/17 02:34:40;;;;;;;5.40;1.30;;;10.60;99.90;;;11.14;100.00;97854.66;4961917;28;20952;-83
2022/09/17 02:37:09;;;;;;;6.23;1.70;;;10.50;99.90;;;11.14;100.00;97849.44;4962809;28;20511;-83
2022/09/17 02:39:39;;;;;;;2.30;1.10;;;10.40;99.90;;;11.15;100.00;97857.06;4962902;28;21190;-83
2022/09/17 02:42:23;;;;;;;5.37;1.53;;;10.40;99.90;;;11.17;100.00;97867.34;4962238;28;20484;-84
2022/09/17 02:45:06;;;;;;;3.87;1.07;;;10.30;99.90;;;11.16;100.00;97861.31;4963640;28;21055;-83
2022/09/17 02:48:07;;;;;;;5.90;1.63;;;10.30;99.90;;;11.07;100.00;97855.41;4963146;28;20488;-84
2022/09/17 02:51:32;;;;;;;2.97;1.20;;;10.30;99.90;;;11.02;100.00;97851.78;4962508;28;20460;-84
2022/09/17 02:54:17;;;;;;;6.40;1.47;;;10.30;99.90;;;11.02;100.00;97843.94;4900855;29;20976;-83
2022/09/17 02:56:57;;;;;;;5.00;1.60;;;10.30;99.90;;;11.00;100.00;97843.34;4900718;29;20503;-84
2022/09/17 02:59:40;;;;;;;2.60;1.67;;;10.30;99.90;;;11.01;100.00;97840.50;4951067;28;20469;-84
2022/09/17 03:02:20;;;;;;;4.77;1.67;;;10.30;99.90;;;11.06;100.00;97845.16;4962500;28;20462;-84
2022/09/17 03:04:51;;;;;;;6.80;1.63;;;10.40;99.90;;;11.08;100.00;97843.16;4962485;28;20610;-82
2022/09/17 03:07:23;;;;;;;4.40;1.50;;;10.40;99.90;;;11.09;100.00;97844.78;4962072;28;21015;-83
2022/09/17 03:09:52;;;;;;;2.73;1.10;;;10.40;99.90;;;11.10;100.00;97851.63;4960999;28;20559;-83
2022/09/17 03:12:23;;;;;;;5.03;1.57;;;10.40;99.90;;;11.10;100.00;97851.63;4962851;28;20649;-83
2022/09/17 03:14:52;;;;;;;3.07;1.37;;;10.40;99.90;;;11.06;100.00;97851.22;4960614;28;20473;-84
2022/09/17 03:17:21;;;;;;;8.70;2.30;;;10.50;99.90;;;11.01;100.00;97852.78;4963652;28;20865;-83
2022/09/17 03:19:50;;;;;;;6.50;2.07;;;10.40;99.90;;;11.03;100.00;97858.63;4963756;28;20465;-83
2022/09/17 03:22:19;;;;;;;3.23;1.63;;;10.50;99.90;;;11.01;100.00;97853.59;4961981;28;20547;-83
2022/09/17 03:24:49;;;;;;;3.17;1.50;;;10.40;99.90;;;11.05;100.00;97851.38;4961782;28;20556;-83
2022/09/17 03:27:18;;;;;;;8.90;1.70;;;10.40;99.90;;;11.09;100.00;97856.06;4961472;28;20996;-83
2022/09/17 03:29:47;;;;;;;5.50;1.40;;;10.40;99.90;;;11.13;100.00;97861.69;4960889;28;20556;-84
2022/09/17 03:32:16;;;;;;;6.33;1.90;;;10.40;99.90;;;11.11;100.00;97868.91;4962197;28;20962;-83
2022/09/17 03:34:45;;;;;;;2.40;1.53;;;10.50;99.90;;;11.15;100.00;97862.31;4960298;28;20500;-83
2022/09/17 03:37:14;;;;;;;4.73;1.47;;;10.50;99.90;;;11.16;100.00;97863.91;4962649;28;20470;-83
2022/09/17 03:39:43;;;;;;;1.77;1.40;;;10.50;99.90;;;11.15;100.00;97867.53;4961698;28;20472;-83
2022/09/17 03:42:13;;;;;;;3.50;1.60;;;10.40;99.90;;;11.09;100.00;97870.94;4959808;28;20552;-83
2022/09/17 03:44:41;;;;;;;5.63;2.07;;;10.40;99.90;;;11.15;100.00;97875.38;4961950;28;20560;-83
2022/09/17 03:47:15;;;;;;;5.57;2.33;;;10.40;99.90;;;11.19;100.00;97867.94;4964235;28;20482;-83
2022/09/17 03:49:46;;;;;;;4.83;1.60;;;10.50;99.90;;;11.19;100.00;97865.34;4962142;28;20467;-84
2022/09/17 03:52:15;;;;;;;9.13;1.70;;;10.50;99.90;;;11.22;100.00;97868.38;4961013;28;20536;-84
2022/09/17 03:54:44;;;;;;;10.60;2.03;;;10.60;99.90;;;11.23;100.00;97863.94;4962602;28;20596;-83
2022/09/17 03:57:14;;;;;;;1.70;1.30;;;10.60;99.90;;;11.15;100.00;97864.91;4959391;28;20459;-84
2022/09/17 03:59:43;;;;;;;3.20;1.73;;;10.60;99.90;;;11.13;100.00;97861.69;4961478;28;20520;-83
2022/09/17 04:02:12;;;;;;;5.57;2.00;;;10.50;99.90;;;11.18;100.00;97861.91;4962932;28;20471;-83
2022/09/17 04:04:40;;;;;;;5.90;1.77;;;10.50;99.90;;;11.22;100.00;97870.19;4961656;28;20952;-84
2022/09/17 04:07:09;;;;;;;3.40;1.77;;;10.50;99.90;;;11.22;100.00;97870.19;4962564;28;20468;-83
2022/09/17 04:09:37;;;;;;;12.13;2.63;;;10.60;99.90;;;11.20;100.00;97866.97;4959663;28;20535;-83
2022/09/17 04:12:07;;;;;;;5.60;1.77;;;10.60;99.90;;;11.23;100.00;97879.66;4964089;28;20548;-83
2022/09/17 04:14:37;;;;;;;5.33;1.50;;;10.60;99.90;;;11.25;100.00;97873.22;4962873;28;20457;-83
2022/09/17 04:17:06;;;;;;;8.70;1.40;;;10.60;99.90;;;11.27;100.00;97875.66;4963072;28;21282;-83
2022/09/17 04:19:35;;;;;;;3.00;1.20;;;10.60;99.90;;;11.27;100.00;97873.03;4962541;28;20580;-83
2022/09/17 04:22:05;;;;;;;4.37;1.43;;;10.70;99.90;;;11.26;100.00;97879.25;4968195;28;20501;-84
2022/09/17 04:24:34;;;;;;;2.80;1.50;;;10.60;99.90;;;11.19;100.00;97879.22;4971299;28;20503;-84
2022/09/17 04:27:04;;;;;;;2.43;1.57;;;10.60;99.90;;;11.22;100.00;97871.00;4968612;28;20481;-83
2022/09/17 04:29:32;;;;;;;5.17;1.87;;;10.60;99.90;;;11.26;100.00;97879.25;4970943;28;21068;-83
2022/09/17 04:32:04;;;;;;;4.37;1.83;;;10.60;99.90;;;11.21;100.00;97879.84;4968994;28;20553;-83
2022/09/17 04:34:32;;;;;;;5.07;1.60;;;10.60;99.90;;;11.20;100.00;97885.28;4968001;28;20440;-83
2022/09/17 04:37:01;;;;;;;3.23;1.70;;;10.70;99.90;;;11.19;100.00;97881.84;4971621;28;20548;-83
2022/09/17 04:39:31;;;;;;;4.30;2.40;;;10.50;99.90;;;11.18;100.00;97882.84;4970082;28;21081;-84
2022/09/17 04:41:59;;;;;;;2.20;1.53;;;10.60;99.90;;;11.19;100.00;97881.84;4969905;28;20575;-83
2022/09/17 04:44:28;;;;;;;4.03;1.37;;;10.60;99.90;;;11.16;100.00;97877.00;4963254;28;20523;-83
2022/09/17 04:46:59;;;;;;;2.07;1.50;;;10.60;99.90;;;11.14;100.00;97881.63;4964307;28;20842;-84
2022/09/17 04:49:29;;;;;;;7.20;2.07;;;10.40;99.90;;;11.15;100.00;97887.66;4961994;28;20442;-83
2022/09/17 04:51:58;;;;;;;6.60;1.80;;;10.40;99.90;;;11.16;100.00;97895.31;4961589;28;20540;-84
2022/09/17 04:54:27;;;;;;;3.77;1.43;;;10.30;99.90;;;11.14;100.00;97897.34;4957688;28;20498;-83
2022/09/17 04:56:56;;;;;;;19.43;1.67;;;10.40;99.90;;;11.11;100.00;97892.47;4961111;28;20547;-83
2022/09/17 04:59:24;;;;;;;8.50;2.40;;;10.30;99.90;;;11.10;100.00;97898.72;4962548;28;20495;-83
2022/09/17 05:01:54;;;;;;;4.23;1.97;;;10.30;99.90;;;11.06;100.00;97911.38;4958598;28;20946;-83
2022/09/17 05:04:23;;;;;;;7.73;1.70;;;10.30;99.90;;;11.01;100.00;97907.72;4961124;28;21170;-84
2022/09/17 05:06:53;;;;;;;8.67;1.53;;;10.30;99.90;;;11.01;100.00;97908.53;4962763;28;20495;-83
2022/09/17 05:09:21;;;;;;;14.97;1.67;;;10.10;99.90;;;10.99;100.00;97921.00;4959181;28;20529;-83
2022/09/17 05:11:50;;;;;;;2.87;1.50;;;10.20;99.90;;;10.99;100.00;97925.44;4959357;28;21050;-84
2022/09/17 05:14:19;;;;;;;5.60;1.90;;;10.10;99.90;;;10.99;100.00;97928.03;4960079;28;20585;-83
2022/09/17 05:16:48;;;;;;;4.27;1.60;;;10.20;99.90;;;10.97;100.00;97925.59;4961559;28;20476;-83
2022/09/17 05:19:17;;;;;;;5.50;1.77;;;10.10;99.90;;;10.97;100.00;97914.34;4960331;28;20593;-83
2022/09/17 05:21:46;;;;;;;6.07;1.90;;;10.10;99.90;;;10.97;100.00;97909.09;4968189;28;20563;-84
2022/09/17 05:24:16;;;;;;;2.27;1.90;;;10.20;99.90;;;10.97;100.00;97924.78;4967057;28;20951;-84
2022/09/17 05:26:45;;;;;;;4.37;1.63;;;10.10;99.90;;;10.91;100.00;97920.34;4967414;28;20967;-83
2022/09/17 05:29:13;;;;;;;8.10;1.87;;;10.00;99.90;;;10.92;100.00;97916.72;4965975;28;20489;-83
2022/09/17 05:31:42;;;;;;;4.53;1.67;;;10.10;99.90;;;10.94;100.00;97927.81;4967339;28;20533;-83
2022/09/17 05:34:11;;;;;;;4.30;1.50;;;10.20;99.90;;;10.97;100.00;97930.03;4966047;28;20457;-83
2022/09/17 05:36:40;;;;;;;3.17;1.47;;;10.10;99.90;;;11.00;100.00;97932.28;4960648;28;20512;-83
2022/09/17 05:39:09;;;;;;;1.97;1.13;;;10.20;99.90;;;11.04;100.00;97928.25;4959603;28;20488;-83
2022/09/17 05:41:39;;;;;;;6.80;1.30;;;10.20;99.90;;;11.05;100.00;97919.41;4959335;28;20461;-83
2022/09/17 05:44:07;;;;;;;3.50;1.17;;;10.20;99.90;;;11.07;100.00;97927.91;4963428;28;20579;-84
2022/09/17 05:46:37;;;;;;;5.83;1.47;;;10.30;99.90;;;11.11;100.00;97934.34;4963849;28;20534;-83
2022/09/17 05:49:05;;;;;;;5.10;1.60;;;10.30;99.90;;;11.14;100.00;97935.78;4965634;28;20480;-83
2022/09/17 05:51:34;;;;;;;6.00;1.30;;;10.30;99.90;;;11.16;100.00;97942.44;4964519;28;20477;-83
2022/09/17 05:54:02;;;;;;;3.30;1.43;;;10.30;99.90;;;11.17;100.00;97943.25;4966761;28;20453;-83
2022/09/17 05:56:31;;;;;;;10.43;1.90;;;10.40;99.90;;;11.20;100.00;97932.38;4963392;28;20570;-83
2022/09/17 05:59:02;;;;;;;4.10;1.37;;;10.40;99.90;;;11.21;100.00;97940.03;4963455;28;20844;-83
2022/09/17 06:01:30;;;;;;;8.10;1.60;;;10.50;99.90;;;11.21;100.00;97940.03;4964438;28;20970;-83
2022/09/17 06:04:03;;;;;;;2.00;1.30;;;10.40;99.90;;;11.23;100.00;97948.50;4965190;28;20444;-83
2022/09/17 06:06:32;;;;;;;2.60;1.17;;;10.50;99.90;;;11.20;100.00;97954.16;4965177;28;20441;-83
2022/09/17 06:09:01;;;;;;;1.80;1.43;;;10.50;99.90;;;11.21;100.00;97950.50;4965801;28;20449;-83
2022/09/17 06:11:30;;;;;;;4.10;1.70;;;10.60;99.90;;;11.17;100.00;97948.47;4967647;28;20489;-83
2022/09/17 06:14:01;;;;;;;8.80;1.93;;;10.40;99.90;;;11.21;100.00;97953.13;4969238;28;20572;-83
2022/09/17 06:16:30;;;;;;;5.40;1.40;;;10.50;99.90;;;11.20;100.00;97963.81;4968553;28;20531;-83
2022/09/17 06:18:59;;;;;;;9.20;1.80;;;10.50;99.90;;;11.18;100.00;97966.59;4964487;28;20951;-83
2022/09/17 06:21:29;;;;;;;3.77;1.63;;;10.60;99.90;;;11.22;100.00;97965.22;4963718;28;20535;-83
2022/09/17 06:23:57;;;;;;;6.73;1.90;;;10.60;99.90;;;11.23;100.00;97969.47;4961480;28;20477;-83
2022/09/17 06:26:29;;;;;;;11.23;1.90;;;10.60;99.90;;;11.26;100.00;97968.25;4964207;28;20570;-84
2022/09/17 06:29:01;;;;;;;3.80;1.87;;;10.60;99.90;;;11.25;100.00;97971.88;4978659;28;21197;-83
2022/09/17 06:31:31;;;;;;;3.67;2.10;;;10.50;99.90;;;11.30;100.00;97966.88;4962693;28;20479;-84
2022/09/17 06:33:59;;;;;;;3.90;1.47;;;10.60;99.90;;;11.33;100.00;97967.28;4960304;28;20496;-83
2022/09/17 06:36:29;;;;;;;4.63;1.50;;;10.70;99.90;;;11.36;100.00;97969.53;4962708;28;20477;-83
2022/09/17 06:38:59;;;;;;;6.10;1.70;;;10.80;99.90;;;11.40;100.00;97968.13;4963892;28;20496;-82
2022/09/17 06:41:27;;;;;;;5.27;1.80;;;10.80;99.90;;;11.42;100.00;97958.25;4963410;28;20560;-83
2022/09/17 06:43:57;;;;;;;3.70;1.83;;;10.80;99.90;;;11.45;100.00;97968.34;4960904;28;20596;-83
2022/09/17 06:46:28;;;;;;;1.40;1.10;;;10.90;99.90;;;11.48;100.00;97973.22;4963735;28;20477;-83
2022/09/17 06:48:57;;;;;;;5.07;1.50;;;10.90;99.90;;;11.54;100.00;97974.25;4962628;28;20462;-83
2022/09/17 06:51:26;;;;;;;2.87;1.43;;;11.00;99.90;;;11.56;100.00;97980.91;4960012;28;20528;-83
2022/09/17 06:53:55;;;;;;;3.80;1.63;;;11.00;99.90;;;11.60;100.00;97981.31;4962352;28;20464;-84
2022/09/17 06:56:23;;;;;;;3.67;1.73;;;11.00;99.90;;;11.65;100.00;97986.78;4961240;28;20560;-84
2022/09/17 06:58:52;;;;;;;2.50;1.30;;;11.00;99.90;;;11.65;100.00;97978.94;4962399;28;20470;-83
2022/09/17 07:01:20;;;;;;;2.33;1.17;;;11.00;99.90;;;11.66;100.00;97982.38;4959833;28;20954;-83
2022/09/17 07:03:50;;;;;;;4.20;1.57;;;11.00;99.90;;;11.68;100.00;97972.50;4961839;28;20548;-83
2022/09/17 07:06:19;;;;;;;5.23;1.70;;;11.00;99.90;;;11.66;100.00;97975.31;4964963;28;20486;-83
2022/09/17 07:08:48;;;;;;;3.63;1.60;;;11.10;99.90;;;11.72;100.00;97976.38;4962040;28;20547;-84
2022/09/17 07:11:17;;;;;;;2.90;1.30;;;11.10;99.90;;;11.77;100.00;97977.38;4963457;28;21042;-83
2022/09/17 07:13:45;;;;;;;4.53;1.30;;;11.20;99.90;;;11.78;100.00;97978.19;4960483;28;20471;-84
2022/09/17 07:16:14;;;;;;;2.60;1.20;;;11.20;99.90;;;11.80;100.00;97976.19;4961236;28;21432;-83
2022/09/17 07:18:44;;;;;;;1.83;1.10;;;11.20;99.90;;;11.79;100.00;97979.81;4962572;28;20494;-83
2022/09/17 07:21:13;;;;;;;4.27;2.00;;;11.30;99.90;;;11.83;100.00;97979.25;4963350;28;20541;-82
2022/09/17 07:23:43;;;;;;;5.63;1.50;;;11.30;99.90;;;11.87;100.00;97982.28;4961864;28;20868;-82
2022/09/17 07:26:15;;;;;;;2.60;1.30;;;11.30;99.90;;;11.87;100.00;97979.66;4963027;28;20477;-83
2022/09/17 07:28:44;;;;;;;5.00;1.53;;;11.30;99.90;;;11.90;100.00;97974.84;4963433;28;20939;-82
2022/09/17 07:31:14;;;;;;;8.00;1.50;;;11.20;99.90;;;11.87;100.00;97979.66;4966492;28;21026;-82
2022/09/17 07:33:45;;;;;;;2.60;1.43;;;11.30;99.90;;;11.86;100.00;97972.78;4965501;28;20445;-82
2022/09/17 07:36:16;;;;;;;6.67;1.87;;;11.30;99.90;;;11.88;100.00;97965.53;4970812;28;20469;-82
2022/09/17 07:38:45;;;;;;;4.97;1.40;;;11.30;99.90;;;11.90;100.00;97963.53;4967734;28;20499;-83
2022/09/17 07:41:17;;;;;;;5.10;1.43;;;11.30;99.90;;;11.92;100.00;97954.47;4959147;28;20656;-83
2022/09/17 07:43:46;;;;;;;6.63;2.00;;;11.30;99.90;;;11.92;100.00;97974.63;4971161;28;20937;-81
2022/09/17 07:46:18;;;;;;;4.00;1.40;;;11.30;99.90;;;11.96;100.00;97973.22;4963080;28;20469;-82
2022/09/17 07:48:47;;;;;;;6.30;1.57;;;11.40;99.90;;;11.97;100.00;97972.22;4961085;28;20487;-82
2022/09/17 07:51:20;;;;;;;12.33;2.50;;;11.40;99.90;;;11.99;100.00;97980.69;4961736;28;20516;-81
2022/09/17 07:53:52;;;;;;;3.27;1.23;;;11.50;99.90;;;11.94;100.00;97977.88;4958320;28;20599;-82
2022/09/17 07:56:22;;;;;;;3.00;1.30;;;11.50;99.90;;;11.94;100.00;97980.50;4963288;28;20464;-82
2022/09/17 07:58:52;;;;;;;4.27;1.70;;;11.50;99.90;;;11.96;100.00;97967.97;4962434;28;20444;-85
2022/09/17 08:01:21;;;;;;;2.03;1.30;;;11.40;99.90;;;11.97;100.00;97969.59;4962799;28;20535;-84
2022/09/17 08:03:53;;;;;;;5.87;1.40;;;11.50;99.90;;;11.96;100.00;97970.59;4960859;28;21013;-85
2022/09/17 08:06:26;;;;;;;8.83;1.50;;;11.50;99.90;;;12.04;100.00;97967.81;4962530;28;20559;-84
2022/09/17 08:08:56;;;;;;;6.53;1.67;;;11.50;99.90;;;12.10;100.00;97975.69;4960465;28;20988;-83
2022/09/17 08:11:27;;;;;;;9.93;1.50;;;11.50;99.90;;;12.18;100.00;97972.06;4958872;28;20571;-83
2022/09/17 08:14:16;;;;;;;12.13;3.57;;;11.60;99.90;;;12.21;100.00;97970.88;4961027;28;20456;-83
2022/09/17 08:16:46;;;;;;;5.00;2.07;;;11.70;99.90;;;12.24;100.00;97973.91;4959202;28;20553;-84
2022/09/17 08:19:17;;;;;;;3.37;1.37;;;11.70;99.90;;;12.26;100.00;97964.00;4961815;28;20505;-84
2022/09/17 08:21:47;;;;;;;5.93;1.30;;;11.70;99.90;;;12.28;100.00;97974.31;4959303;28;20492;-84
2022/09/17 08:24:17;;;;;;;5.10;1.40;;;11.80;99.90;;;12.31;100.00;97979.97;4961335;28;20496;-84
2022/09/17 08:26:45;;;;;;;3.50;1.70;;;11.80;99.90;;;12.32;100.00;97971.06;4958032;28;20571;-84
2022/09/17 08:29:14;;;;;;;6.77;1.47;;;11.80;99.90;;;12.34;100.00;97974.31;4961283;28;20468;-83
2022/09/17 08:31:43;;;;;;;7.73;1.27;;;11.90;99.90;;;12.41;100.00;97983.00;4958086;28;20534;-82
2022/09/17 08:34:11;;;;;;;2.90;1.27;;;11.90;99.90;;;12.51;100.00;97991.28;4959596;28;20485;-83
2022/09/17 08:36:40;;;;;;;3.93;1.00;;;12.00;99.90;;;12.52;100.00;97995.53;4959621;28;20496;-86
2022/09/17 08:39:11;;;;;;;3.90;1.50;;;12.00;99.90;;;12.63;100.00;97994.91;4961631;28;20474;-86
2022/09/17 08:41:55;;;;;;;4.07;1.50;;;12.10;99.90;;;12.71;100.00;97987.84;4960882;28;20918;-85
2022/09/17 08:44:30;;;;;;;15.73;5.03;;;12.20;99.90;;;12.76;100.00;97991.50;4961140;28;21193;-82
2022/09/17 08:47:03;;;;;;;8.80;2.00;;;12.20;99.90;;;12.85;100.00;97981.59;4963215;28;20496;-86
2022/09/17 08:49:37;;;;;;;3.67;1.53;;;12.30;99.90;;;12.93;100.00;97989.25;4963490;28;20556;-85
2022/09/17 08:53:13;;;;;;;4.70;1.50;;;12.40;99.90;;;12.94;100.00;97991.69;4964343;28;20487;-84
2022/09/17 08:55:54;;;;;;;3.30;1.27;;;12.40;99.90;;;13.01;100.00;97987.25;4951365;28;20514;-87
2022/09/17 08:59:04;;;;;;;4.17;1.27;;;12.50;99.90;;;13.08;100.00;97987.25;4971018;28;20473;-87
2022/09/17 09:01:42;;;;;;;7.93;2.77;;;12.50;99.90;;;13.18;100.00;97982.41;4971280;28;20815;-87
2022/09/17 09:05:02;;;;;;;2.87;1.33;;;12.50;99.90;;;13.30;100.00;97980.75;4967098;28;20548;-87
2022/09/17 09:07:41;;;;;;;2.60;1.50;;;12.70;99.90;;;13.29;100.00;97994.91;4965624;28;20464;-86
2022/09/17 09:10:21;;;;;;;4.67;1.00;;;12.70;99.90;;;13.25;100.00;97995.53;4963442;28;20525;-84
2022/09/17 09:12:53;;;;;;;6.50;1.30;;;12.70;99.90;;;13.24;100.00;97996.53;4960910;28;20535;-86
2022/09/17 09:15:35;;;;;;;7.07;1.50;;;12.70;99.90;;;13.31;100.00;98000.75;4963404;28;20541;-86
2022/09/17 09:18:18;;;;;;;3.50;1.30;;;12.80;99.90;;;13.42;100.00;97997.50;4963411;28;20477;-85
2022/09/17 09:20:54;;;;;;;2.97;1.37;;;12.90;99.90;;;13.40;100.00;97996.88;4966030;28;20492;-85
2022/09/17 09:23:34;;;;;;;5.40;1.27;;;12.90;99.90;;;13.48;100.00;97993.25;4976087;28;20465;-86
2022/09/17 09:26:16;;;;;;;3.07;1.40;;;12.90;99.90;;;13.50;100.00;97997.25;4969569;28;20489;-86
2022/09/17 09:29:04;;;;;;;6.13;1.63;;;12.90;99.90;;;13.52;100.00;98000.50;4966566;28;20497;-85
2022/09/17 09:32:06;;;;;;;3.47;0.90;;;13.00;99.90;;;13.51;100.00;98009.41;4970423;28;20906;-85
2022/09/17 09:34:47;;;;;;;2.63;1.20;;;13.10;99.90;;;13.47;100.00;98018.69;4969033;28;20910;-84
2022/09/17 09:37:24;;;;;;;4.23;1.00;;;13.00;99.90;;;13.36;100.00;98015.91;4970245;28;20552;-86
2022/09/17 09:40:01;;;;;;;4.17;1.13;;;12.80;99.90;;;13.38;100.00;98022.56;4970596;28;20465;-85
2022/09/17 09:42:33;;;;;;;2.50;1.37;;;12.90;99.90;;;13.37;100.00;98031.44;4971124;28;20506;-86
2022/09/17 09:45:15;;;;;;;6.80;1.60;;;12.90;99.90;;;13.24;100.00;98035.91;4970449;28;20826;-88
2022/09/17 09:48:02;;;;;;;2.37;1.40;;;12.90;99.90;;;13.26;100.00;98042.56;4972935;28;20869;-85
2022/09/17 09:50:47;;;;;;;6.07;1.83;;;12.70;99.90;;;13.24;100.00;98049.03;4969882;28;20440;-86
2022/09/17 09:53:52;;;;;;;3.00;1.37;;;12.70;99.90;;;13.17;100.00;98053.50;4972322;28;20457;-85
2022/09/17 09:56:44;;;;;;;4.50;1.10;;;12.60;99.90;;;13.02;100.00;98051.84;4969342;28;20494;-86
2022/09/17 09:59:13;;;;;;;7.30;2.90;;;12.50;99.90;;;12.89;100.00;98053.66;4973845;28;20504;-85
2022/09/17 10:01:45;;;;;;;4.03;1.70;;;12.40;99.90;;;12.76;100.00;98053.66;4967398;28;20539;-85
2022/09/17 10:04:22;;;;;;;2.63;1.73;;;12.40;99.90;;;12.61;100.00;98054.66;4969514;28;21074;-85
2022/09/17 10:07:02;;;;;;;2.70;1.03;;;12.20;99.90;;;12.58;100.00;98049.81;4973682;28;20494;-86
2022/09/17 10:09:34;;;;;;;2.50;1.23;;;12.10;99.90;;;12.58;100.00;98049.00;4974306;28;20551;-86
2022/09/17 10:12:15;;;;;;;3.43;1.10;;;12.10;99.90;;;12.61;100.00;98048.59;4971269;28;20477;-86
2022/09/17 10:14:46;;;;;;;4.40;1.20;;;12.00;99.90;;;12.69;100.00;98044.97;4971752;28;20465;-85
2022/09/17 10:17:23;;;;;;;1.70;1.00;;;12.00;99.90;;;12.66;100.00;98053.25;4971944;28;20477;-86
2022/09/17 10:20:16;;;;;;;3.77;1.00;;;12.10;99.90;;;12.74;100.00;98053.06;4971704;28;20475;-86
2022/09/17 10:22:50;;;;;;;4.30;1.00;;;12.00;99.90;;;12.73;100.00;98054.06;4972000;28;21032;-87
2022/09/17 10:25:29;;;;;;;6.80;2.07;;;12.00;99.90;;;12.69;100.00;98058.91;4968222;28;20912;-86
2022/09/17 10:28:01;;;;;;;4.37;1.23;;;12.10;99.90;;;12.68;100.00;98069.59;4970395;28;20621;-86
2022/09/17 10:30:31;;;;;;;7.40;1.87;;;12.10;99.90;;;12.66;100.00;98063.75;4968354;28;20548;-85
2022/09/17 10:33:22;;;;;;;6.87;1.23;;;12.10;99.90;;;12.65;100.00;98070.00;4965174;28;20490;-84
2022/09/17 10:36:03;;;;;;;3.23;1.40;;;12.00;99.90;;;12.67;100.00;98081.09;4963266;28;20462;-84
2022/09/17 10:38:37;;;;;;;4.40;1.20;;;12.00;99.90;;;12.62;100.00;98076.44;4961225;28;20484;-85
2022/09/17 10:41:20;;;;;;;6.40;1.80;;;12.00;99.90;;;12.63;100.00;98068.38;4964194;28;20555;-84